Lynwood, Idaho
Current Conditions -  °F | °C
As of 8:31 AM on Monday 22 Dec 2014 (Local Time) from KTWF Reporting Station
Overcast Overcast  
Wind Chill: 29°   Ceiling: 900
Heat Index: 39°   Visibility: 10mi
Dew Point: 35°   Wind: 21mph
Humidity: 86%   Direction: 260°W
Pressure: 30.05"   Gusts: 29mph
Location:  42.2444°N, 114.662°W
Report Text: KTWF 221531Z 26018G25KT 10SM BKN009 OVC015 04/02 A3005 RMK AO2 PK WND 25026/1519 CIG 007V012 T00390017
Loading
Personal Weather Stations






























Interactive Weather Map New forecast layout! Learn more

10-Day Weather Forecast

Advertisements
Track Severe Weather on mobile